Time;durP1;ratioP1;P1;durP2;ratioP2;P2;SDS_P1;SDS_P2;PMS_P1;PMS_P2;Temp;Humidity;BMP_temperature;BMP_pressure;BME280_temperature;BME280_humidity;BME280_pressure;Samples;Min_cycle;Max_cycle;Signal;HPM_P1;HPM_P2
2021/06/15 00:01:47;;;;;;;;;9.25;9.25;;;;;27.25;39.71;101316.41;5083352;27;45501;-45
2021/06/15 00:04:13;;;;;;;;;10.25;9.50;;;;;27.25;39.70;101313.69;5085963;27;45505;-43
2021/06/15 00:06:38;;;;;;;;;11.50;11.50;;;;;27.24;39.24;101311.09;5080193;27;45443;-43
2021/06/15 00:09:04;;;;;;;;;8.25;8.25;;;;;27.21;39.18;101306.78;5093085;27;47079;-42
2021/06/15 00:11:30;;;;;;;;;8.75;8.75;;;;;27.16;39.14;101306.28;5085001;27;46618;-42
2021/06/15 00:13:55;;;;;;;;;8.00;8.00;;;;;27.13;39.59;101309.25;5080420;27;45553;-42
2021/06/15 00:16:21;;;;;;;;;11.50;11.50;;;;;27.12;39.90;101310.25;5083295;27;45472;-43
2021/06/15 00:18:46;;;;;;;;;12.75;12.00;;;;;27.10;40.00;101303.19;5090121;27;45456;-44
2021/06/15 00:21:12;;;;;;;;;9.50;9.50;;;;;27.09;39.42;101307.78;5093386;27;46922;-45
2021/06/15 00:23:38;;;;;;;;;13.25;8.00;;;;;27.08;39.40;101306.06;5106690;27;45749;-41
2021/06/15 00:26:03;;;;;;;;;10.25;8.50;;;;;27.08;39.50;101313.34;5081294;27;45488;-43
2021/06/15 00:28:29;;;;;;;;;9.25;9.25;;;;;27.08;39.60;101308.78;5082229;27;44881;-43
2021/06/15 00:30:55;;;;;;;;;8.50;7.50;;;;;27.07;39.83;101304.31;5091489;27;45396;-43
2021/06/15 00:33:20;;;;;;;;;7.75;7.75;;;;;27.05;39.58;101306.28;5093086;27;45451;-44
2021/06/15 00:35:46;;;;;;;;;11.50;9.75;;;;;27.02;40.08;101303.81;5088746;27;45941;-44
2021/06/15 00:38:12;;;;;;;;;9.50;9.50;;;;;26.98;39.46;101297.72;5089204;27;46271;-43
2021/06/15 00:40:37;;;;;;;;;7.00;7.00;;;;;26.95;39.93;101297.97;5079120;27;46957;-45
2021/06/15 00:43:03;;;;;;;;;7.50;7.50;;;;;26.94;40.18;101306.28;5080103;27;46659;-43
2021/06/15 00:45:32;;;;;;;;;8.00;6.25;;;;;26.91;39.59;101301.91;5085372;27;45496;-43
2021/06/15 00:47:58;;;;;;;;;9.50;8.50;;;;;26.89;39.55;101300.31;5090677;27;45386;-43
2021/06/15 00:50:25;;;;;;;;;7.00;7.00;;;;;26.88;40.37;101304.91;5088956;27;48275;-43
2021/06/15 00:52:53;;;;;;;;;9.75;8.00;;;;;26.87;40.08;101303.16;5085593;27;45623;-43
2021/06/15 00:55:20;;;;;;;;;8.00;6.25;;;;;26.86;40.09;101312.34;5083861;27;45542;-43
2021/06/15 00:57:45;;;;;;;;;8.00;8.00;;;;;26.81;39.86;101306.41;5088313;27;45814;-42
2021/06/15 01:00:11;;;;;;;;;6.00;6.00;;;;;26.80;39.87;101310.09;5084244;27;45803;-43
2021/06/15 01:02:37;;;;;;;;;10.25;9.50;;;;;26.79;40.30;101299.31;5089666;27;45401;-44
2021/06/15 01:05:09;;;;;;;;;7.00;7.00;;;;;26.79;39.98;101304.78;5086356;27;45314;-43
2021/06/15 01:08:01;;;;;;;;;7.25;6.25;;;;;26.77;40.42;101307.63;5094092;27;45740;-42
2021/06/15 01:10:38;;;;;;;;;8.00;6.75;;;;;26.76;39.82;101303.16;5081710;27;47336;-42
2021/06/15 01:13:25;;;;;;;;;7.00;7.00;;;;;26.74;40.22;101299.69;5082616;27;45543;-42
2021/06/15 01:16:05;;;;;;;;;9.25;8.25;;;;;26.73;39.76;101300.69;5093528;27;45523;-42
2021/06/15 01:18:35;;;;;;;;;8.00;8.00;;;;;26.72;39.64;101298.97;5082366;27;45527;-42
2021/06/15 01:21:06;;;;;;;;;10.25;10.00;;;;;26.71;39.73;101304.53;5085722;27;48483;-43
2021/06/15 01:23:50;;;;;;;;;7.50;7.50;;;;;26.70;39.80;101300.94;5082533;27;46257;-42
2021/06/15 01:26:40;;;;;;;;;7.00;7.00;;;;;26.70;39.57;101309.13;5082732;27;45763;-42
2021/06/15 01:29:27;;;;;;;;;6.75;6.50;;;;;26.67;39.72;101299.31;5087488;27;45680;-41
2021/06/15 01:31:58;;;;;;;;;10.75;9.50;;;;;26.66;40.03;101299.44;5094426;27;48117;-43
2021/06/15 01:34:33;;;;;;;;;7.75;7.75;;;;;26.64;40.13;101299.56;5095043;27;45473;-42
2021/06/15 01:37:23;;;;;;;;;6.50;6.50;;;;;26.64;40.00;101305.00;5089995;27;45586;-44
2021/06/15 01:39:55;;;;;;;;;8.00;8.00;;;;;26.62;39.89;101301.56;5082258;27;45596;-44
2021/06/15 01:42:29;;;;;;;;;7.00;7.00;;;;;26.61;40.17;101308.00;5081717;27;46762;-43
2021/06/15 01:45:32;;;;;;;;;4.50;4.50;;;;;26.60;40.10;101298.09;5090457;27;45669;-41
2021/06/15 01:48:09;;;;;;;;;7.00;7.00;;;;;26.54;40.08;101293.13;5095023;27;45413;-44
2021/06/15 01:50:37;;;;;;;;;7.25;7.25;;;;;26.50;40.22;101288.91;5085235;27;45531;-43
2021/06/15 01:53:06;;;;;;;;;8.00;8.00;;;;;26.47;39.85;101293.75;5084379;27;45826;-42
2021/06/15 01:55:34;;;;;;;;;10.00;9.00;;;;;26.44;39.85;101294.00;5082183;27;45294;-41
2021/06/15 01:58:01;;;;;;;;;11.75;10.75;;;;;26.40;40.34;101302.38;5092958;27;45603;-41
2021/06/15 02:00:27;;;;;;;;;10.25;10.25;;;;;26.40;40.41;101304.25;5088120;27;45784;-42
2021/06/15 02:02:53;;;;;;;;;12.50;11.50;;;;;26.42;40.38;101304.97;5089097;27;46879;-43
2021/06/15 02:05:26;;;;;;;;;11.75;10.00;;;;;26.43;41.07;101304.03;5088346;27;47064;-44
2021/06/15 02:07:55;;;;;;;;;10.75;10.00;;;;;26.43;40.66;101306.75;5085140;27;45685;-43
2021/06/15 02:10:21;;;;;;;;;11.00;11.00;;;;;26.39;40.88;101299.78;5088553;27;46752;-41
2021/06/15 02:12:51;;;;;;;;;10.00;10.00;;;;;26.38;41.08;101304.38;5090575;27;48205;-42
2021/06/15 02:15:18;;;;;;;;;12.25;11.25;;;;;26.38;41.10;101306.22;5081867;27;46110;-43
2021/06/15 02:17:46;;;;;;;;;11.00;11.00;;;;;26.35;41.43;101309.16;5086419;27;46608;-44
2021/06/15 02:20:14;;;;;;;;;8.25;7.25;;;;;26.34;41.07;101305.56;5097488;27;45381;-41
2021/06/15 02:22:48;;;;;;;;;7.00;7.00;;;;;26.35;41.71;101303.72;5082312;27;47723;-42
2021/06/15 02:25:21;;;;;;;;;9.25;9.00;;;;;26.33;41.72;101297.53;5085178;27;45319;-42
2021/06/15 02:27:47;;;;;;;;;10.75;10.75;;;;;26.33;41.14;101298.41;5094717;27;45526;-42
2021/06/15 02:30:14;;;;;;;;;7.00;7.00;;;;;26.32;41.56;101298.53;5089258;27;46312;-41
2021/06/15 02:32:42;;;;;;;;;7.50;7.50;;;;;26.25;41.22;101306.28;5080765;27;47325;-41
2021/06/15 02:35:10;;;;;;;;;8.50;8.50;;;;;26.20;41.69;101307.63;5095553;27;45360;-41
2021/06/15 02:37:40;;;;;;;;;7.25;7.25;;;;;26.15;41.54;101309.84;5088459;27;45368;-41
2021/06/15 02:40:07;;;;;;;;;8.50;8.50;;;;;26.13;41.97;101314.53;5080243;27;45385;-41
2021/06/15 02:42:39;;;;;;;;;10.00;9.00;;;;;26.09;41.90;101309.34;5082212;27;45616;-42
2021/06/15 02:45:06;;;;;;;;;9.25;8.00;;;;;26.06;41.51;101301.41;5081821;27;45394;-42
2021/06/15 02:47:34;;;;;;;;;7.50;7.50;;;;;25.96;41.19;101310.41;5085768;27;45743;-42
2021/06/15 02:50:02;;;;;;;;;7.25;7.25;;;;;25.82;41.23;101300.59;5092738;27;45654;-42
2021/06/15 02:52:51;;;;;;;;;6.50;6.50;;;;;25.75;41.64;101311.03;5087908;27;47047;-41
2021/06/15 02:55:37;;;;;;;;;7.00;7.00;;;;;25.72;41.92;101307.69;5086679;27;45730;-43
2021/06/15 02:58:04;;;;;;;;;7.25;7.25;;;;;25.69;41.93;101310.66;5085419;27;45752;-43
2021/06/15 03:00:30;;;;;;;;;8.75;8.00;;;;;25.64;42.02;101305.50;5084567;27;45489;-45
2021/06/15 03:02:56;;;;;;;;;9.75;9.75;;;;;25.64;42.37;101310.94;5095061;27;47247;-43
2021/06/15 03:05:22;;;;;;;;;8.50;7.50;;;;;25.64;42.37;101310.09;5085526;27;45408;-42
2021/06/15 03:07:48;;;;;;;;;7.75;7.75;;;;;25.64;42.63;101307.38;5088425;27;45584;-43
2021/06/15 03:10:15;;;;;;;;;9.00;9.00;;;;;25.64;43.00;101310.09;5090063;27;45536;-42
2021/06/15 03:12:52;;;;;;;;;9.00;9.00;;;;;25.61;43.08;101300.31;5089663;27;48372;-42
2021/06/15 03:15:22;;;;;;;;;11.50;10.50;;;;;25.60;43.11;101301.31;5087319;27;45451;-42
2021/06/15 03:18:01;;;;;;;;;8.25;8.25;;;;;25.60;43.29;101300.44;5073442;27;45393;-42
2021/06/15 03:20:29;;;;;;;;;10.50;10.25;;;;;25.59;43.02;101299.56;5089319;27;45396;-43
2021/06/15 03:23:07;;;;;;;;;8.50;8.50;;;;;25.60;43.73;101295.00;5081598;27;47452;-43
2021/06/15 03:25:34;;;;;;;;;10.00;10.00;;;;;25.59;43.56;101301.41;5091020;27;45291;-42
2021/06/15 03:28:05;;;;;;;;;9.25;9.25;;;;;25.54;43.12;101301.78;5086299;27;45503;-43
2021/06/15 03:30:31;;;;;;;;;7.25;7.25;;;;;25.52;43.88;101292.84;5083322;27;45223;-42
2021/06/15 03:33:06;;;;;;;;;9.00;9.00;;;;;25.51;43.71;101300.13;5089427;27;47610;-43
2021/06/15 03:35:35;;;;;;;;;11.00;11.00;;;;;25.51;43.46;101296.53;5086312;27;45839;-43
2021/06/15 03:38:03;;;;;;;;;10.75;10.75;;;;;25.49;43.52;101296.66;5083417;27;45291;-43
2021/06/15 03:40:33;;;;;;;;;8.00;8.00;;;;;25.49;43.57;101304.81;5086290;27;45807;-43
2021/06/15 03:42:59;;;;;;;;;11.75;11.75;;;;;25.49;43.92;101299.38;5090820;27;47926;-44
2021/06/15 03:45:28;;;;;;;;;9.00;9.00;;;;;25.48;43.41;101305.81;5086364;27;45583;-42
2021/06/15 03:47:55;;;;;;;;;9.75;9.75;;;;;25.46;43.60;101302.34;5085078;27;45822;-43
2021/06/15 03:50:23;;;;;;;;;9.25;9.25;;;;;25.45;43.86;101303.31;5081248;27;45471;-43
2021/06/15 03:52:52;;;;;;;;;9.00;9.00;;;;;25.45;44.09;101307.91;5085236;27;47335;-43
2021/06/15 03:55:20;;;;;;;;;8.25;8.25;;;;;25.44;44.02;101303.44;5081535;27;45428;-43
2021/06/15 03:57:47;;;;;;;;;8.50;8.50;;;;;25.41;43.68;101303.66;5085191;27;45668;-42
2021/06/15 04:00:17;;;;;;;;;10.25;10.25;;;;;25.38;43.77;101304.75;5083951;27;45547;-44
2021/06/15 04:02:46;;;;;;;;;9.50;9.50;;;;;25.34;43.65;101294.25;5081397;27;47118;-44
2021/06/15 04:05:14;;;;;;;;;11.75;11.00;;;;;25.32;43.99;101296.22;5087561;27;45241;-42
2021/06/15 04:07:42;;;;;;;;;8.00;8.00;;;;;25.28;43.90;101294.69;5082733;27;45297;-42
2021/06/15 04:10:10;;;;;;;;;9.50;9.50;;;;;25.27;44.09;101301.97;5087463;27;45509;-44
2021/06/15 04:12:36;;;;;;;;;10.25;10.25;;;;;25.27;44.09;101295.66;5084912;27;45357;-42
2021/06/15 04:15:03;;;;;;;;;8.75;8.75;;;;;25.26;43.94;101296.66;5086988;27;45387;-44
2021/06/15 04:17:35;;;;;;;;;12.00;10.75;;;;;25.24;43.85;101296.75;5088551;27;45404;-42
2021/06/15 04:20:03;;;;;;;;;10.50;9.25;;;;;25.20;43.83;101301.56;5088314;27;46914;-42
2021/06/15 04:22:32;;;;;;;;;8.75;8.75;;;;;25.18;44.22;101300.81;5086312;27;45497;-42
2021/06/15 04:24:59;;;;;;;;;9.50;9.50;;;;;25.18;44.08;101299.94;5088561;27;45542;-45
2021/06/15 04:27:26;;;;;;;;;9.00;8.75;;;;;25.14;43.84;101307.44;5087404;27;45511;-42
2021/06/15 04:29:54;;;;;;;;;12.25;10.00;;;;;25.13;44.19;101307.53;5086360;27;45509;-42
2021/06/15 04:32:29;;;;;;;;;9.50;9.50;;;;;25.13;44.12;101315.69;5083217;27;47157;-42
2021/06/15 04:34:59;;;;;;;;;10.00;9.50;;;;;25.09;44.01;101311.47;5087189;27;45347;-41
2021/06/15 04:37:26;;;;;;;;;11.50;10.00;;;;;25.10;44.27;101318.63;5084688;27;45416;-43
2021/06/15 04:40:01;;;;;;;;;9.50;9.50;;;;;25.12;44.24;101324.81;5088182;27;45494;-41
2021/06/15 04:42:44;;;;;;;;;9.50;9.50;;;;;25.12;44.21;101322.09;5086950;27;47099;-42
2021/06/15 04:45:10;;;;;;;;;12.25;10.75;;;;;25.12;44.31;101328.41;5092327;27;45380;-43
2021/06/15 04:47:41;;;;;;;;;10.25;10.25;;;;;25.11;44.19;101328.53;5072763;27;45625;-42
2021/06/15 04:50:18;;;;;;;;;12.00;11.50;;;;;25.09;44.33;101336.78;5086214;27;45555;-42
2021/06/15 04:52:47;;;;;;;;;12.50;11.50;;;;;25.12;44.36;101341.13;5082912;27;47304;-44
2021/06/15 04:55:14;;;;;;;;;12.25;12.25;;;;;25.12;44.50;101342.00;5081323;27;46081;-42
2021/06/15 04:57:42;;;;;;;;;13.75;11.00;;;;;25.07;44.29;101338.75;5083877;27;45333;-42
2021/06/15 05:00:09;;;;;;;;;12.00;12.00;;;;;25.06;44.72;101341.59;5099681;27;45715;-43
2021/06/15 05:02:38;;;;;;;;;14.00;10.50;;;;;25.06;44.51;101349.72;5090105;27;46405;-41
2021/06/15 05:05:06;;;;;;;;;9.50;9.50;;;;;25.03;44.61;101342.69;5084908;27;45479;-43
2021/06/15 05:07:32;;;;;;;;;13.25;13.00;;;;;25.03;44.68;101348.13;5091418;27;45479;-41
2021/06/15 05:10:01;;;;;;;;;12.50;12.50;;;;;25.02;44.57;101346.34;5083049;27;45386;-43
2021/06/15 05:12:34;;;;;;;;;15.50;14.50;;;;;24.96;44.88;101354.91;5098754;27;45522;-42
2021/06/15 05:15:04;;;;;;;;;11.75;11.75;;;;;24.90;44.74;101358.06;5084911;27;45438;-43
2021/06/15 05:17:31;;;;;;;;;13.25;12.25;;;;;24.90;45.02;101363.47;5081509;27;45476;-44
2021/06/15 05:19:57;;;;;;;;;13.00;13.00;;;;;24.93;45.12;101360.56;5083597;27;45525;-43
2021/06/15 05:22:27;;;;;;;;;11.25;11.25;;;;;24.93;44.52;101361.44;5082783;27;46189;-43
2021/06/15 05:24:58;;;;;;;;;14.50;14.50;;;;;24.94;44.59;101367.75;5091390;27;45497;-44
2021/06/15 05:27:30;;;;;;;;;12.75;12.25;;;;;24.89;44.62;101372.59;5084530;27;45722;-42
2021/06/15 05:29:56;;;;;;;;;13.50;12.75;;;;;24.86;44.95;101372.84;5089181;27;45460;-42
2021/06/15 05:32:21;;;;;;;;;11.50;11.50;;;;;24.87;44.98;101372.72;5084155;27;47361;-42
2021/06/15 05:34:47;;;;;;;;;11.50;11.25;;;;;24.85;44.77;101374.69;5082829;27;45389;-44
2021/06/15 05:37:13;;;;;;;;;13.50;12.75;;;;;24.81;44.39;101370.47;5082877;27;45710;-44
2021/06/15 05:39:39;;;;;;;;;13.75;11.00;;;;;24.79;44.65;101372.41;5093676;27;46176;-42
2021/06/15 05:42:07;;;;;;;;;13.25;12.50;;;;;24.75;44.42;101379.03;5081136;27;47932;-44
2021/06/15 05:44:33;;;;;;;;;12.00;11.00;;;;;24.68;44.59;101380.44;5085109;27;45649;-43
2021/06/15 05:46:59;;;;;;;;;11.00;10.25;;;;;24.66;44.54;101385.13;5090591;27;45303;-43
2021/06/15 05:49:25;;;;;;;;;11.75;11.75;;;;;24.66;44.67;101376.97;5089343;27;45368;-42
2021/06/15 05:52:08;;;;;;;;;12.25;11.50;;;;;24.69;44.79;101378.59;5092606;27;47303;-42
2021/06/15 05:54:34;;;;;;;;;12.50;12.00;;;;;24.70;44.51;101383.03;5085365;27;45527;-42
2021/06/15 05:57:00;;;;;;;;;13.50;12.50;;;;;24.69;44.51;101390.31;5084323;27;45468;-42
2021/06/15 05:59:26;;;;;;;;;11.75;11.25;;;;;24.70;44.68;101380.34;5076680;27;45305;-41
2021/06/15 06:01:52;;;;;;;;;14.75;14.75;;;;;24.71;44.81;101379.34;5087494;27;46918;-41
2021/06/15 06:04:26;;;;;;;;;16.00;15.00;;;;;24.75;44.54;101380.88;5080680;27;45502;-41
2021/06/15 06:09:40;;;;;;;;;14.50;14.50;;;;;24.80;44.38;101376.88;5087602;27;45604;-43
2021/06/15 06:12:08;;;;;;;;;16.50;16.50;;;;;24.80;44.36;101376.00;5081373;27;45599;-43
2021/06/15 06:14:33;;;;;;;;;16.75;15.50;;;;;24.76;44.14;101375.31;5072551;27;47689;-45
2021/06/15 06:17:00;;;;;;;;;14.25;13.75;;;;;24.75;44.28;101375.44;5083437;27;45439;-44
2021/06/15 06:19:26;;;;;;;;;16.25;15.00;;;;;24.79;44.53;101379.69;5088691;27;45608;-44
2021/06/15 06:21:52;;;;;;;;;16.75;14.50;;;;;24.80;44.11;101374.16;5094959;27;48357;-42
2021/06/15 06:24:17;;;;;;;;;17.00;15.00;;;;;24.82;44.14;101371.31;5084640;27;45399;-42
2021/06/15 06:26:49;;;;;;;;;15.00;15.00;;;;;24.80;44.46;101366.00;5087801;27;45755;-42
2021/06/15 06:29:19;;;;;;;;;18.00;16.50;;;;;24.82;43.89;101364.03;5081984;27;45450;-43
2021/06/15 06:31:45;;;;;;;;;14.75;12.75;;;;;24.79;44.03;101367.00;5094450;27;47504;-42
2021/06/15 06:34:11;;;;;;;;;16.50;15.50;;;;;24.80;44.10;101368.72;5089881;27;45496;-43
2021/06/15 06:36:36;;;;;;;;;13.25;13.00;;;;;24.80;44.14;101378.72;5089554;27;45446;-45
2021/06/15 06:39:06;;;;;;;;;14.00;13.25;;;;;24.79;44.42;101372.41;5087228;27;45691;-43
2021/06/15 06:41:33;;;;;;;;;14.25;14.25;;;;;24.83;44.00;101376.63;5104372;27;47526;-45
2021/06/15 06:43:58;;;;;;;;;14.25;13.75;;;;;24.86;44.15;101376.41;5082120;27;46400;-47
2021/06/15 06:46:24;;;;;;;;;14.00;14.00;;;;;24.91;43.79;101371.53;5089323;27;45597;-46
2021/06/15 06:48:50;;;;;;;;;16.00;14.25;;;;;24.92;43.83;101376.00;5088912;27;45442;-44
2021/06/15 06:51:15;;;;;;;;;14.50;14.50;;;;;24.93;43.64;101385.00;5097024;27;45476;-45
2021/06/15 06:53:41;;;;;;;;;12.50;12.50;;;;;24.95;43.88;101375.78;5083114;27;45834;-43
2021/06/15 06:56:07;;;;;;;;;14.75;14.25;;;;;24.99;43.43;101379.13;5080193;27;45405;-45
2021/06/15 06:58:34;;;;;;;;;14.50;13.75;;;;;25.01;43.56;101382.63;5084737;27;45281;-44
2021/06/15 07:01:01;;;;;;;;;16.25;16.25;;;;;25.02;43.60;101378.94;5086835;27;46767;-48
2021/06/15 07:03:27;;;;;;;;;16.75;13.75;;;;;25.05;43.74;101380.59;5095537;27;45961;-44
2021/06/15 07:05:52;;;;;;;;;14.50;14.50;;;;;25.05;43.22;101377.88;5086380;27;45501;-45
2021/06/15 07:08:18;;;;;;;;;13.25;13.25;;;;;25.00;43.24;101371.84;5082574;27;45344;-43
2021/06/15 07:10:43;;;;;;;;;13.75;13.00;;;;;25.01;43.32;101384.47;5093204;27;47407;-43
2021/06/15 07:13:09;;;;;;;;;14.25;13.00;;;;;25.02;43.38;101378.94;5080235;27;45641;-43
2021/06/15 07:15:34;;;;;;;;;17.50;15.00;;;;;25.06;43.49;101376.88;5083509;27;45469;-47
2021/06/15 07:18:00;;;;;;;;;13.75;13.75;;;;;25.06;43.28;101376.88;5088695;27;45615;-46
2021/06/15 07:20:25;;;;;;;;;12.50;12.50;;;;;25.06;43.27;101383.19;5083788;27;47458;-46
2021/06/15 07:22:51;;;;;;;;;11.00;11.00;;;;;25.10;43.46;101389.25;5089365;27;45817;-43
2021/06/15 07:25:17;;;;;;;;;12.25;12.25;;;;;25.15;43.17;101384.34;5085445;27;45371;-45
2021/06/15 07:27:43;;;;;;;;;16.25;14.75;;;;;25.18;43.19;101389.59;5091916;27;45389;-42
2021/06/15 07:30:09;;;;;;;;;14.00;12.50;;;;;25.20;43.26;101387.63;5091565;27;46082;-42
2021/06/15 07:32:35;;;;;;;;;17.50;17.50;;;;;25.21;43.04;101387.50;5085029;27;45665;-45
2021/06/15 07:35:00;;;;;;;;;12.75;12.75;;;;;25.26;43.08;101380.84;5090168;27;45631;-42
2021/06/15 07:37:26;;;;;;;;;12.50;12.50;;;;;25.30;42.93;101380.53;5091518;27;46123;-43
2021/06/15 07:39:51;;;;;;;;;16.50;13.75;;;;;25.36;43.18;101379.22;5085421;27;48044;-43
2021/06/15 07:42:17;;;;;;;;;14.00;12.50;;;;;25.40;42.81;101370.72;5090448;27;45612;-45
2021/06/15 07:44:42;;;;;;;;;15.00;14.25;;;;;25.46;42.97;101369.41;5084170;27;45973;-42
2021/06/15 07:47:08;;;;;;;;;13.75;13.75;;;;;25.50;42.71;101369.06;5085966;27;45726;-44
2021/06/15 07:49:34;;;;;;;;;12.50;12.25;;;;;25.53;42.50;101371.53;5083033;27;47532;-44
2021/06/15 07:51:59;;;;;;;;;12.50;12.50;;;;;25.57;42.40;101366.78;5088988;27;45458;-43
2021/06/15 07:54:25;;;;;;;;;14.25;14.25;;;;;25.60;42.81;101365.66;5085344;27;45441;-47
2021/06/15 07:56:51;;;;;;;;;14.75;14.75;;;;;25.65;42.92;101363.47;5085183;27;45677;-47
2021/06/15 07:59:17;;;;;;;;;13.00;13.00;;;;;25.70;42.83;101367.63;5085963;27;48358;-43
2021/06/15 08:01:42;;;;;;;;;17.25;17.25;;;;;25.75;42.18;101364.56;5104815;27;45457;-43
2021/06/15 08:04:12;;;;;;;;;14.25;13.25;;;;;25.77;42.23;101368.03;5088746;27;45758;-43
2021/06/15 08:06:37;;;;;;;;;15.00;14.25;;;;;25.80;42.13;101359.66;5089363;27;45857;-43
2021/06/15 08:09:03;;;;;;;;;18.00;18.00;;;;;25.82;42.46;101365.84;5104904;27;46040;-46
2021/06/15 08:11:28;;;;;;;;;18.75;18.25;;;;;25.84;41.98;101355.72;5083418;27;45817;-43
2021/06/15 08:13:54;;;;;;;;;18.50;16.75;;;;;25.84;42.29;101361.16;5081394;27;45690;-44
2021/06/15 08:16:20;;;;;;;;;15.50;15.50;;;;;25.86;42.27;101361.91;5094487;27;45530;-45
2021/06/15 08:18:45;;;;;;;;;13.00;13.00;;;;;25.88;42.43;101359.91;5085116;27;47887;-44
2021/06/15 08:21:13;;;;;;;;;17.25;17.25;;;;;25.92;42.49;101372.31;5085133;27;45709;-43
2021/06/15 08:23:39;;;;;;;;;17.50;17.50;;;;;25.94;42.31;101364.03;5074877;27;45615;-42
2021/06/15 08:26:05;;;;;;;;;14.00;13.25;;;;;25.96;42.12;101362.06;5084307;27;45600;-45
2021/06/15 08:28:32;;;;;;;;;16.00;13.50;;;;;25.99;42.13;101357.25;5087728;27;50088;-44
2021/06/15 08:30:57;;;;;;;;;17.75;16.50;;;;;26.05;42.08;101366.81;5085456;27;45536;-45
2021/06/15 08:33:24;;;;;;;;;14.75;14.25;;;;;26.08;42.22;101364.72;5085307;27;45483;-45
2021/06/15 08:35:50;;;;;;;;;13.25;13.25;;;;;26.07;42.37;101363.00;5083658;27;45526;-43
2021/06/15 08:38:18;;;;;;;;;16.75;16.50;;;;;26.11;42.20;101359.03;5088270;27;47598;-44
2021/06/15 08:40:49;;;;;;;;;16.25;16.25;;;;;26.15;41.85;101359.66;5082826;27;46388;-43
2021/06/15 08:43:15;;;;;;;;;14.25;14.25;;;;;26.18;41.62;101358.59;5091200;27;45827;-44
2021/06/15 08:45:41;;;;;;;;;16.75;15.50;;;;;26.22;41.92;101357.34;5085243;27;45666;-48
2021/06/15 08:48:07;;;;;;;;;15.25;14.25;;;;;26.24;41.76;101360.81;5086810;27;46312;-43
2021/06/15 08:50:33;;;;;;;;;16.25;15.25;;;;;26.24;41.57;101358.97;5085395;27;45949;-43
2021/06/15 08:52:59;;;;;;;;;16.00;16.00;;;;;26.27;41.67;101363.28;5080918;27;45811;-43
2021/06/15 08:55:32;;;;;;;;;9.25;7.75;;;;;26.28;42.10;101365.91;5085270;27;45345;-43
2021/06/15 08:58:10;;;;;;;;;15.25;13.75;;;;;26.31;42.23;101354.78;5109213;27;46245;-44
2021/06/15 09:00:36;;;;;;;;;14.50;14.00;;;;;26.35;41.98;101367.16;5085520;27;45314;-45
2021/06/15 09:03:01;;;;;;;;;19.25;17.25;;;;;26.40;41.93;101366.81;5089114;27;45632;-45
2021/06/15 09:05:27;;;;;;;;;17.25;15.25;;;;;26.44;41.67;101368.34;5081554;27;45849;-44
2021/06/15 09:08:00;;;;;;;;;17.00;15.75;;;;;26.47;41.43;101362.66;5083308;27;48104;-45
2021/06/15 09:10:27;;;;;;;;;19.00;18.00;;;;;26.48;41.52;101356.22;5087310;27;45581;-48
2021/06/15 09:12:53;;;;;;;;;17.25;17.25;;;;;26.50;41.66;101361.53;5069207;28;45651;-42
2021/06/15 09:15:21;;;;;;;;;15.75;14.50;;;;;26.50;41.39;101356.97;5088669;27;45552;-45
2021/06/15 09:17:47;;;;;;;;;16.50;16.50;;;;;26.54;41.69;101357.59;5084900;27;45629;-45
2021/06/15 09:20:26;;;;;;;;;14.00;13.00;;;;;26.56;41.29;101347.47;5080723;27;45907;-44
2021/06/15 09:22:58;;;;;;;;;18.00;16.00;;;;;26.59;41.57;101356.25;5085490;27;45312;-44
2021/06/15 09:25:24;;;;;;;;;16.25;15.75;;;;;26.63;41.70;101360.47;5090493;27;45543;-46
2021/06/15 09:27:51;;;;;;;;;15.75;15.00;;;;;26.66;41.77;101364.78;5080667;27;47201;-43
2021/06/15 09:30:17;;;;;;;;;14.50;13.00;;;;;26.68;41.33;101362.84;5078480;27;45404;-43
2021/06/15 09:32:46;;;;;;;;;15.00;15.00;;;;;26.73;41.18;101362.47;5090053;27;45671;-43
2021/06/15 09:35:14;;;;;;;;;12.00;12.00;;;;;26.74;41.13;101359.63;5084352;27;45724;-45
2021/06/15 09:37:43;;;;;;;;;15.25;15.25;;;;;26.78;41.21;101361.09;5080371;27;48357;-44
2021/06/15 09:40:30;;;;;;;;;16.50;14.75;;;;;26.82;41.08;101364.47;5090229;27;45467;-44
2021/06/15 09:43:06;;;;;;;;;18.00;15.00;;;;;26.85;40.72;101362.34;5085001;27;45535;-45
2021/06/15 09:45:35;;;;;;;;;15.50;15.00;;;;;26.89;40.72;101350.22;5098421;27;45524;-43
2021/06/15 09:48:27;;;;;;;;;16.75;15.75;;;;;26.94;41.18;101358.91;5085044;27;47083;-42
2021/06/15 09:50:57;;;;;;;;;14.00;14.00;;;;;27.02;40.79;101357.44;5089117;27;45383;-44
2021/06/15 09:53:27;;;;;;;;;11.50;11.25;;;;;27.09;40.28;101362.28;5083494;27;45685;-44
2021/06/15 09:55:54;;;;;;;;;15.00;15.00;;;;;27.15;40.40;101356.31;5084686;27;45548;-42
2021/06/15 09:58:49;;;;;;;;;15.75;13.75;;;;;27.22;40.24;101352.09;5092009;27;47263;-45
2021/06/15 10:01:44;;;;;;;;;12.25;12.25;;;;;27.30;40.40;101353.31;5093451;27;45805;-45
2021/06/15 10:04:18;;;;;;;;;16.25;14.25;;;;;27.34;40.40;101355.69;5076610;27;45305;-44
2021/06/15 10:06:49;;;;;;;;;15.25;13.75;;;;;27.36;40.11;101356.44;5088122;27;46731;-44
2021/06/15 10:09:31;;;;;;;;;13.75;12.00;;;;;27.39;39.99;101353.44;5089342;27;48459;-46
2021/06/15 10:12:02;;;;;;;;;12.75;12.75;;;;;27.43;39.62;101356.78;5091337;27;45642;-44
2021/06/15 10:14:29;;;;;;;;;12.25;12.25;;;;;27.45;39.92;101355.69;5091328;27;45495;-43
2021/06/15 10:16:56;;;;;;;;;12.00;12.00;;;;;27.47;39.65;101356.41;5095291;27;45635;-45
2021/06/15 10:19:23;;;;;;;;;11.75;11.75;;;;;27.51;39.69;101354.28;5087478;27;47159;-42
2021/06/15 10:21:49;;;;;;;;;13.00;13.00;;;;;27.53;39.67;101352.28;5086272;27;45710;-44
2021/06/15 10:24:18;;;;;;;;;12.50;12.50;;;;;27.54;39.77;101345.84;5081603;27;45484;-46
2021/06/15 10:26:44;;;;;;;;;15.25;14.25;;;;;27.55;39.29;101348.44;5090293;27;45473;-44
2021/06/15 10:29:12;;;;;;;;;13.50;13.25;;;;;27.54;39.15;101343.13;5083550;27;46104;-43
2021/06/15 10:31:40;;;;;;;;;14.50;14.50;;;;;27.53;39.18;101344.13;5086357;27;46664;-43
2021/06/15 10:34:06;;;;;;;;;11.25;11.25;;;;;27.54;38.71;101337.66;5083602;27;45675;-44
2021/06/15 10:36:40;;;;;;;;;14.25;14.25;;;;;27.53;39.31;101344.13;5092894;27;45337;-46
2021/06/15 10:39:40;;;;;;;;;15.00;13.00;;;;;27.54;39.48;101332.22;5090722;27;48346;-46
2021/06/15 10:42:16;;;;;;;;;15.50;15.00;;;;;27.55;39.57;101333.94;5087558;27;45756;-43
2021/06/15 10:45:04;;;;;;;;;15.75;14.75;;;;;27.55;39.23;101337.53;5089086;27;45487;-44
2021/06/15 10:47:30;;;;;;;;;13.25;13.25;;;;;27.58;38.63;101344.63;5094327;27;45562;-44
2021/06/15 10:50:01;;;;;;;;;13.75;13.75;;;;;27.60;39.33;101339.91;5089144;27;48393;-44
2021/06/15 10:53:02;;;;;;;;;16.00;16.00;;;;;27.62;38.77;101340.63;5096619;27;46083;-44
2021/06/15 10:55:39;;;;;;;;;17.00;17.00;;;;;27.66;38.96;101333.94;5081327;27;45955;-46
2021/06/15 10:58:05;;;;;;;;;16.50;15.50;;;;;27.68;38.56;101342.00;5083998;27;45319;-44
2021/06/15 11:00:30;;;;;;;;;16.75;15.50;;;;;27.71;38.89;101336.31;5082961;27;46655;-45
2021/06/15 11:03:20;;;;;;;;;17.00;17.00;;;;;27.74;38.91;101334.19;5099103;27;45236;-46
2021/06/15 11:05:49;;;;;;;;;17.25;15.75;;;;;27.76;38.77;101340.38;5087734;27;45355;-44
2021/06/15 11:08:23;;;;;;;;;17.50;16.00;;;;;27.79;38.83;101329.19;5081251;27;45529;-45
2021/06/15 11:10:53;;;;;;;;;15.00;14.25;;;;;27.81;38.05;101327.19;5084515;27;48389;-42
2021/06/15 11:13:45;;;;;;;;;13.50;12.50;;;;;27.83;38.47;101314.31;5089654;27;45493;-42
2021/06/15 11:16:34;;;;;;;;;13.25;13.25;;;;;27.87;38.74;101314.06;5089628;27;45465;-44
2021/06/15 11:19:10;;;;;;;;;11.50;11.50;;;;;27.91;38.24;101320.97;5085944;27;45616;-43
2021/06/15 11:21:49;;;;;;;;;14.50;14.50;;;;;27.92;38.24;101314.50;5095225;27;47856;-43
2021/06/15 11:24:25;;;;;;;;;15.00;14.75;;;;;27.94;38.45;101315.25;5090074;27;45355;-42
2021/06/15 11:27:00;;;;;;;;;14.25;14.25;;;;;27.95;38.41;101304.22;5086948;27;45438;-43
2021/06/15 11:29:36;;;;;;;;;14.50;14.50;;;;;27.97;38.04;101304.97;5091493;27;45488;-44